Time;durP1;ratioP1;P1;durP2;ratioP2;P2;SDS_P1;SDS_P2;PMS_P1;PMS_P2;Temp;Humidity;BMP_temperature;BMP_pressure;BME280_temperature;BME280_humidity;BME280_pressure;Samples;Min_cycle;Max_cycle;Signal;HPM_P1;HPM_P2
2022/10/01 00:02:01;;;;;;;16.58;11.45;;;7.60;99.90;;;;;;6277707;22;20330;-87
2022/10/01 00:04:49;;;;;;;15.32;11.38;;;7.70;99.90;;;;;;6254143;22;20051;-84
2022/10/01 00:07:42;;;;;;;24.92;12.68;;;7.70;99.90;;;;;;6279895;22;20033;-86
2022/10/01 00:10:30;;;;;;;14.65;11.15;;;7.70;1.00;;;;;;6255943;22;20023;-84
2022/10/01 00:13:19;;;;;;;13.95;10.93;;;7.70;1.00;;;;;;6277378;22;20034;-85
2022/10/01 00:16:09;;;;;;;15.13;11.38;;;7.70;1.00;;;;;;6277076;22;20020;-85
2022/10/01 00:18:59;;;;;;;14.50;10.90;;;7.70;1.00;;;;;;6277050;22;20113;-86
2022/10/01 00:21:46;;;;;;;13.80;10.57;;;7.70;1.00;;;;;;6278707;22;20019;-86
2022/10/01 00:24:39;;;;;;;18.10;11.10;;;7.70;99.90;;;;;;6276372;22;20681;-85
2022/10/01 00:27:26;;;;;;;;;;;7.60;99.90;;;;;;6257024;22;20303;-86
2022/10/01 00:30:14;;;;;;;14.77;10.70;;;7.50;99.90;;;;;;6280414;22;19915;-86
2022/10/01 00:33:03;;;;;;;13.23;10.38;;;7.50;99.90;;;;;;6279375;22;20027;-86
2022/10/01 00:35:53;;;;;;;12.70;9.30;;;7.50;99.90;;;;;;6255980;22;20028;-86
2022/10/01 00:38:41;;;;;;;13.25;10.20;;;7.60;93.70;;;;;;6258428;22;20403;-86
2022/10/01 00:41:31;;;;;;;15.02;9.93;;;7.50;99.90;;;;;;6277062;22;20034;-85
2022/10/01 00:44:35;;;;;;;13.27;9.35;;;7.50;99.90;;;;;;6277448;22;20038;-85
2022/10/01 00:47:30;;;;;;;15.18;8.98;;;7.40;99.90;;;;;;6256965;22;20020;-87
2022/10/01 00:50:27;;;;;;;14.05;8.57;;;7.50;99.90;;;;;;6277754;22;20296;-87
2022/10/01 00:53:17;;;;;;;9.82;7.72;;;7.60;1.00;;;;;;6276138;22;20046;-85
2022/10/01 00:56:05;;;;;;;10.93;8.05;;;7.60;99.90;;;;;;6275649;22;20024;-84
2022/10/01 00:58:54;;;;;;;10.27;8.15;;;7.50;99.90;;;;;;6256851;22;20031;-87
2022/10/01 01:01:42;;;;;;;12.15;7.93;;;7.50;99.90;;;;;;6277866;22;20077;-87
2022/10/01 01:04:33;;;;;;;10.32;8.70;;;7.60;10.20;;;;;;6279029;22;20433;-87
2022/10/01 01:07:24;;;;;;;9.02;6.47;;;7.60;1.00;;;;;;6279018;22;20020;-88
2022/10/01 01:10:15;;;;;;;9.52;7.97;;;7.60;1.00;;;;;;6257538;22;20020;-89
2022/10/01 01:13:14;;;;;;;12.50;9.18;;;7.60;99.90;;;;;;6278571;22;20028;-88
2022/10/01 01:16:07;;;;;;;11.48;7.95;;;7.60;99.90;;;;;;6278377;22;20077;-87
2022/10/01 01:19:19;;;;;;;9.95;8.20;;;7.50;99.90;;;;;;6278414;22;20028;-86
2022/10/01 01:22:10;;;;;;;10.85;8.82;;;7.50;99.90;;;;;;6259259;22;20019;-85
2022/10/01 01:25:05;;;;;;;8.93;7.97;;;7.50;99.90;;;;;;6279625;22;20023;-86
2022/10/01 01:27:58;;;;;;;11.75;8.73;;;7.40;99.90;;;;;;6259779;22;20031;-85
2022/10/01 01:30:48;;;;;;;12.30;9.00;;;7.40;99.90;;;;;;6278496;22;20080;-84
2022/10/01 01:33:38;;;;;;;11.05;8.40;;;7.40;99.90;;;;;;6277472;22;20279;-85
2022/10/01 01:36:31;;;;;;;11.43;9.27;;;7.40;99.90;;;;;;6279985;22;20020;-85
2022/10/01 01:39:22;;;;;;;10.77;9.57;;;7.30;99.90;;;;;;6256870;22;20416;-85
2022/10/01 01:42:15;;;;;;;14.32;9.68;;;7.40;99.90;;;;;;6275949;22;20058;-86
2022/10/01 01:45:08;;;;;;;13.05;9.68;;;7.30;99.90;;;;;;6277433;22;20030;-85
2022/10/01 01:47:59;;;;;;;15.98;9.68;;;7.30;99.90;;;;;;6277772;22;20024;-88
2022/10/01 01:51:01;;;;;;;10.18;8.43;;;7.30;99.90;;;;;;6258350;22;20023;-86
2022/10/01 01:53:51;;;;;;;14.00;9.75;;;7.30;99.90;;;;;;6279671;22;20028;-84
2022/10/01 01:56:40;;;;;;;11.10;9.00;;;7.40;99.90;;;;;;6277933;22;20023;-84
2022/10/01 01:59:27;;;;;;;11.50;8.15;;;7.40;99.90;;;;;;6280257;22;20035;-85
2022/10/01 02:02:24;;;;;;;13.07;8.80;;;7.40;99.90;;;;;;6276843;22;20023;-86
2022/10/01 02:05:16;;;;;;;11.32;8.93;;;7.40;99.90;;;;;;6276003;22;20027;-86
2022/10/01 02:08:26;;;;;;;12.60;8.30;;;7.50;89.10;;;;;;6258091;22;20023;-87
2022/10/01 02:11:20;;;;;;;11.00;8.02;;;7.40;45.30;;;;;;6256063;22;20047;-85
2022/10/01 02:14:34;;;;;;;9.55;6.70;;;7.40;25.70;;;;;;6277626;22;20027;-85
2022/10/01 02:17:37;;;;;;;11.40;7.35;;;7.40;2.40;;;;;;6277416;22;20293;-87
2022/10/01 02:20:28;;;;;;;12.32;7.30;;;7.40;1.00;;;;;;6258132;22;20031;-86
2022/10/01 02:23:24;;;;;;;9.13;7.50;;;7.40;1.00;;;;;;6277675;22;20308;-86
2022/10/01 02:26:16;;;;;;;8.90;6.75;;;7.40;1.00;;;;;;6276971;22;20023;-87
2022/10/01 02:29:07;;;;;;;8.13;7.28;;;7.40;1.00;;;;;;6278263;22;20272;-85
2022/10/01 02:31:56;;;;;;;10.55;7.25;;;7.40;1.00;;;;;;6282904;22;20030;-85
2022/10/01 02:34:46;;;;;;;8.80;7.07;;;7.40;1.00;;;;;;6271306;22;20047;-87
2022/10/01 02:37:35;;;;;;;9.05;6.63;;;7.30;1.00;;;;;;6272252;22;20027;-85
2022/10/01 02:40:28;;;;;;;10.63;6.43;;;7.40;1.00;;;;;;6292797;22;20023;-85
2022/10/01 02:43:20;;;;;;;7.30;5.97;;;7.40;1.00;;;;;;6275049;22;20079;-84
2022/10/01 02:46:16;;;;;;;7.93;6.40;;;7.50;99.90;;;;;;6294098;22;20024;-86
2022/10/01 02:49:05;;;;;;;7.63;6.18;;;7.50;99.90;;;;;;6294118;22;20031;-84
2022/10/01 02:51:59;;;;;;;7.90;6.43;;;7.50;99.90;;;;;;6294209;22;20024;-84
2022/10/01 02:55:00;;;;;;;6.82;6.13;;;7.50;99.90;;;;;;6297256;22;20087;-85
2022/10/01 02:57:51;;;;;;;7.05;5.50;;;7.50;99.90;;;;;;6277258;22;20027;-84
2022/10/01 03:00:38;;;;;;;6.40;5.38;;;7.60;99.90;;;;;;6281932;22;20018;-84
2022/10/01 03:03:26;;;;;;;7.18;5.35;;;7.60;99.90;;;;;;6280784;22;20024;-84
2022/10/01 03:06:15;;;;;;;6.78;5.32;;;7.60;99.90;;;;;;6305947;22;20084;-86
2022/10/01 03:09:02;;;;;;;8.05;5.13;;;7.60;99.90;;;;;;6303658;22;20071;-85
2022/10/01 03:11:50;;;;;;;6.03;4.90;;;7.70;99.90;;;;;;6303407;22;20054;-86
2022/10/01 03:14:38;;;;;;;7.65;4.93;;;7.80;99.90;;;;;;6305878;22;20011;-86
2022/10/01 03:17:25;;;;;;;6.25;5.00;;;7.90;99.90;;;;;;6287304;22;20019;-86
2022/10/01 03:20:23;;;;;;;6.85;4.70;;;7.90;99.90;;;;;;6288394;22;20020;-85
2022/10/01 03:23:15;;;;;;;5.47;4.28;;;8.00;99.90;;;;;;6288857;22;20023;-89
2022/10/01 03:26:09;;;;;;;8.20;4.25;;;7.90;99.90;;;;;;6267796;22;20020;-86
2022/10/01 03:28:56;;;;;;;6.53;5.38;;;7.90;99.90;;;;;;6289725;22;20072;-87
2022/10/01 03:31:45;;;;;;;6.72;5.18;;;7.90;99.90;;;;;;6289366;22;20020;-87
2022/10/01 03:34:33;;;;;;;6.00;4.70;;;7.80;99.90;;;;;;6267671;22;20033;-86
2022/10/01 03:37:22;;;;;;;6.32;5.15;;;7.60;99.90;;;;;;6290722;22;20032;-87
2022/10/01 03:40:09;;;;;;;5.90;5.25;;;7.60;99.90;;;;;;6291700;22;20023;-86
2022/10/01 03:42:59;;;;;;;6.80;5.07;;;7.50;99.90;;;;;;6293229;22;20362;-90
2022/10/01 03:45:46;;;;;;;7.65;5.55;;;7.50;99.90;;;;;;6287916;22;20020;-87
2022/10/01 03:48:33;;;;;;;10.00;5.13;;;7.40;99.90;;;;;;6281972;22;20023;-84
2022/10/01 03:51:20;;;;;;;6.90;5.60;;;7.40;99.90;;;;;;6283320;22;20020;-85
2022/10/01 03:54:08;;;;;;;9.65;5.75;;;7.40;99.90;;;;;;6282972;22;20028;-89
2022/10/01 03:56:55;;;;;;;8.10;5.72;;;7.30;99.90;;;;;;6282791;22;20038;-89
2022/10/01 03:59:42;;;;;;;6.32;4.55;;;7.30;99.90;;;;;;6261495;22;20110;-88
2022/10/01 04:02:32;;;;;;;5.57;4.40;;;7.30;99.90;;;;;;6280394;22;20344;-87
2022/10/01 04:05:19;;;;;;;5.82;4.68;;;7.30;99.90;;;;;;6260832;22;20019;-87
2022/10/01 04:08:07;;;;;;;6.85;4.15;;;7.40;99.90;;;;;;6281860;22;20024;-86
2022/10/01 04:10:54;;;;;;;4.65;3.30;;;7.60;99.90;;;;;;6280398;22;20023;-88
2022/10/01 04:13:41;;;;;;;4.53;3.72;;;7.70;99.90;;;;;;6284035;22;20023;-85
2022/10/01 04:16:29;;;;;;;4.63;3.40;;;7.80;99.90;;;;;;6280641;22;20320;-85
2022/10/01 04:19:18;;;;;;;4.95;3.47;;;7.80;99.90;;;;;;6278917;22;20308;-85
2022/10/01 04:22:07;;;;;;;5.22;3.67;;;7.90;91.60;;;;;;6258578;22;20268;-86
2022/10/01 04:24:54;;;;;;;3.65;3.22;;;7.90;54.60;;;;;;6279680;22;20307;-85
2022/10/01 04:28:03;;;;;;;4.10;3.67;;;7.90;30.70;;;;;;6278256;22;20019;-85
2022/10/01 04:31:23;;;;;;;3.38;3.08;;;8.00;11.70;;;;;;6277592;22;20335;-86
2022/10/01 04:34:00;;;;;;;5.38;3.17;;;8.00;1.00;;;;;;6279534;22;20038;-84
2022/10/01 04:36:47;;;;;;;4.30;3.20;;;8.00;1.00;;;;;;6255119;22;20102;-83
2022/10/01 04:39:34;;;;;;;2.75;2.55;;;8.00;1.00;;;;;;6255573;22;20023;-84
2022/10/01 04:42:22;;;;;;;3.13;2.75;;;8.10;1.00;;;;;;6277265;22;20024;-88
2022/10/01 04:45:12;;;;;;;6.22;3.38;;;8.20;1.00;;;;;;6279362;22;20019;-86
2022/10/01 04:48:02;;;;;;;3.03;2.72;;;8.20;1.00;;;;;;6280193;22;20024;-86
2022/10/01 04:50:49;;;;;;;2.75;2.50;;;8.20;1.00;;;;;;6257001;22;20034;-85
2022/10/01 04:53:36;;;;;;;3.03;2.72;;;8.30;1.00;;;;;;6279160;22;20020;-86
2022/10/01 04:56:23;;;;;;;5.05;2.95;;;8.30;1.00;;;;;;6279646;22;20307;-85
2022/10/01 04:59:13;;;;;;;4.28;2.80;;;8.30;1.00;;;;;;6262613;22;20030;-86
2022/10/01 05:02:00;;;;;;;3.80;2.75;;;8.30;1.00;;;;;;6287498;22;20024;-86
2022/10/01 05:04:48;;;;;;;2.50;2.30;;;8.30;1.00;;;;;;6289772;22;20445;-86
2022/10/01 05:07:37;;;;;;;5.95;2.28;;;8.30;1.00;;;;;;6282074;22;20027;-89
2022/10/01 05:10:28;;;;;;;5.78;2.58;;;8.30;1.00;;;;;;6261012;22;20019;-86
2022/10/01 05:13:15;;;;;;;3.45;2.58;;;8.20;1.00;;;;;;6280531;22;20039;-87
2022/10/01 05:16:07;;;;;;;3.78;2.38;;;8.30;1.00;;;;;;6260316;22;20031;-87
2022/10/01 05:18:54;;;;;;;2.50;2.10;;;8.20;1.00;;;;;;6277175;22;20027;-85
2022/10/01 05:21:42;;;;;;;2.35;2.15;;;8.30;1.00;;;;;;6276298;22;20119;-86
2022/10/01 05:24:29;;;;;;;2.72;2.33;;;8.30;1.00;;;;;;6255671;22;20035;-86
2022/10/01 05:27:18;;;;;;;2.53;1.90;;;8.30;1.00;;;;;;6254666;22;20327;-87
2022/10/01 05:30:10;;;;;;;2.58;2.28;;;8.30;1.00;;;;;;6276255;22;20106;-86
2022/10/01 05:33:00;;;;;;;6.50;2.85;;;8.30;1.00;;;;;;6257596;22;20102;-89
2022/10/01 05:35:50;;;;;;;3.88;2.17;;;8.30;1.00;;;;;;6280441;22;20033;-87
2022/10/01 05:38:38;;;;;;;2.60;2.15;;;8.30;1.00;;;;;;6281197;22;20038;-86
2022/10/01 05:41:25;;;;;;;4.75;2.42;;;8.30;1.00;;;;;;6279217;22;20031;-85
2022/10/01 05:44:12;;;;;;;3.40;2.30;;;8.20;1.00;;;;;;6277809;22;20502;-86
2022/10/01 05:47:02;;;;;;;3.47;2.78;;;8.20;1.00;;;;;;6276859;22;20024;-88
2022/10/01 05:49:49;;;;;;;2.67;2.30;;;8.20;1.00;;;;;;6276007;22;20392;-87
2022/10/01 05:52:37;;;;;;;2.55;2.35;;;8.20;1.00;;;;;;6253593;22;20024;-90
2022/10/01 05:55:24;;;;;;;2.95;2.20;;;8.30;1.00;;;;;;6277462;22;20043;-88
2022/10/01 05:58:13;;;;;;;3.60;2.25;;;8.40;1.00;;;;;;6277606;22;20034;-88
2022/10/01 06:01:00;;;;;;;2.53;2.33;;;8.40;1.00;;;;;;6278563;22;20016;-87
2022/10/01 06:03:51;;;;;;;4.65;2.13;;;8.40;1.00;;;;;;6280170;22;20033;-86
2022/10/01 06:06:38;;;;;;;3.50;2.30;;;8.40;1.00;;;;;;6260551;22;20024;-85
2022/10/01 06:09:26;;;;;;;2.97;1.95;;;8.50;1.00;;;;;;6253967;22;20472;-86
2022/10/01 06:12:13;;;;;;;3.60;2.15;;;8.50;1.00;;;;;;6277717;22;20034;-85
2022/10/01 06:15:06;;;;;;;2.25;2.05;;;8.60;1.00;;;;;;6255825;22;20058;-87
2022/10/01 06:17:54;;;;;;;4.25;2.13;;;8.60;1.00;;;;;;6256117;22;20034;-86
2022/10/01 06:20:41;;;;;;;2.33;2.13;;;8.50;1.00;;;;;;6277317;22;20028;-85
2022/10/01 06:23:31;;;;;;;2.28;2.08;;;8.50;1.00;;;;;;6275436;22;20094;-85
2022/10/01 06:26:20;;;;;;;2.20;1.70;;;8.50;1.00;;;;;;6277771;22;20035;-84
2022/10/01 06:29:10;;;;;;;2.43;2.23;;;8.60;1.00;;;;;;6279241;22;20093;-85
2022/10/01 06:32:00;;;;;;;3.78;2.15;;;8.60;1.00;;;;;;6275715;22;20426;-85
2022/10/01 06:34:47;;;;;;;2.50;2.10;;;8.70;1.00;;;;;;6277789;22;20419;-86
2022/10/01 06:37:38;;;;;;;2.83;2.33;;;8.80;99.90;;;;;;6276135;22;20431;-89
2022/10/01 06:40:28;;;;;;;2.05;1.85;;;9.00;99.90;;;;;;6276600;22;20408;-84
2022/10/01 06:43:15;;;;;;;3.20;2.13;;;9.10;99.90;;;;;;6275994;22;20415;-87
2022/10/01 06:46:04;;;;;;;7.40;2.90;;;9.20;99.90;;;;;;6278550;22;20023;-86
2022/10/01 06:48:51;;;;;;;3.45;1.98;;;9.20;99.90;;;;;;6277926;22;20019;-87
2022/10/01 06:54:46;;;;;;;2.70;2.00;;;9.20;99.90;;;;;;6276958;22;20106;-84
2022/10/01 06:57:33;;;;;;;2.20;1.98;;;9.10;99.90;;;;;;6254572;22;20027;-88
2022/10/01 07:00:24;;;;;;;2.78;2.03;;;9.00;99.90;;;;;;6255686;22;20407;-85
2022/10/01 07:03:18;;;;;;;3.13;2.28;;;9.10;99.90;;;;;;6255671;22;20027;-84
2022/10/01 07:06:10;;;;;;;2.42;2.22;;;9.10;99.90;;;;;;6259000;22;20028;-89
2022/10/01 07:08:57;;;;;;;4.88;2.40;;;9.10;99.90;;;;;;6255534;22;20047;-87
2022/10/01 07:11:44;;;;;;;2.42;2.17;;;9.10;99.90;;;;;;6278782;22;20030;-86
2022/10/01 07:14:34;;;;;;;3.28;2.40;;;9.10;99.90;;;;;;6279184;22;20023;-87
2022/10/01 07:17:21;;;;;;;3.20;1.90;;;9.10;99.90;;;;;;6276735;22;20023;-84
2022/10/01 07:20:08;;;;;;;2.72;2.08;;;9.10;99.90;;;;;;6278329;22;20027;-88
2022/10/01 07:22:58;;;;;;;3.05;2.28;;;9.00;99.90;;;;;;6275123;22;20031;-86
2022/10/01 07:25:45;;;;;;;3.50;2.35;;;9.00;99.90;;;;;;6274349;22;20030;-85
2022/10/01 07:28:32;;;;;;;4.53;1.90;;;8.90;99.90;;;;;;6280154;22;20034;-87
2022/10/01 07:31:20;;;;;;;5.25;2.30;;;8.90;99.90;;;;;;6277277;22;20364;-85
2022/10/01 07:34:08;;;;;;;4.05;2.25;;;8.90;1.00;;;;;;6279675;22;20031;-88
2022/10/01 07:36:58;;;;;;;3.45;2.05;;;8.80;1.00;;;;;;6277708;22;20453;-89
2022/10/01 07:39:45;;;;;;;3.05;2.15;;;8.80;1.00;;;;;;6278186;22;20027;-86
2022/10/01 07:42:34;;;;;;;6.03;2.58;;;8.90;1.00;;;;;;6280546;22;20494;-85
2022/10/01 07:45:23;;;;;;;3.92;2.28;;;8.90;1.00;;;;;;6278501;22;20139;-86
2022/10/01 07:48:12;;;;;;;3.65;2.53;;;8.90;1.00;;;;;;6277386;22;20020;-89
2022/10/01 07:51:02;;;;;;;3.22;2.40;;;8.90;1.00;;;;;;6277989;22;20438;-86
2022/10/01 07:53:52;;;;;;;5.70;2.50;;;8.80;1.00;;;;;;6277932;22;20451;-87
2022/10/01 07:56:40;;;;;;;3.17;2.58;;;8.80;1.00;;;;;;6276246;22;20027;-87
2022/10/01 07:59:27;;;;;;;4.07;2.33;;;8.80;1.00;;;;;;6255467;22;20032;-88
2022/10/01 08:02:16;;;;;;;2.35;2.15;;;8.80;1.00;;;;;;6258021;22;20097;-85
2022/10/01 08:05:19;;;;;;;3.22;2.55;;;8.70;1.00;;;;;;6276992;22;20026;-89
2022/10/01 08:08:07;;;;;;;4.55;3.42;;;8.80;1.00;;;;;;6281027;22;20051;-87
2022/10/01 08:10:54;;;;;;;4.10;2.97;;;8.70;1.00;;;;;;6259160;22;20082;-85
2022/10/01 08:13:44;;;;;;;4.00;2.30;;;8.80;5.30;;;;;;6257682;22;20047;-87
2022/10/01 08:16:33;;;;;;;4.28;3.05;;;8.80;3.90;;;;;;6276701;22;20102;-87
2022/10/01 08:19:20;;;;;;;4.85;2.55;;;8.80;48.20;;;;;;6276975;22;20416;-85
2022/10/01 08:22:09;;;;;;;2.83;2.53;;;8.70;99.20;;;;;;6276709;22;20486;-88
2022/10/01 08:24:56;;;;;;;5.60;3.05;;;8.70;99.90;;;;;;6257191;22;20050;-82
2022/10/01 08:27:43;;;;;;;3.55;2.90;;;8.70;99.90;;;;;;6255734;22;20049;-86
2022/10/01 08:30:30;;;;;;;4.57;3.53;;;8.70;99.90;;;;;;6278173;22;20023;-85
2022/10/01 08:33:22;;;;;;;2.95;2.65;;;8.70;99.90;;;;;;6278175;22;20024;-85
2022/10/01 08:36:10;;;;;;;4.57;3.47;;;8.70;99.90;;;;;;6255594;22;20051;-86
2022/10/01 08:39:01;;;;;;;8.70;3.70;;;8.70;99.90;;;;;;6279505;22;20047;-85
2022/10/01 08:42:04;;;;;;;6.18;3.67;;;8.70;99.90;;;;;;6280066;22;20047;-86
2022/10/01 08:44:54;;;;;;;4.35;3.33;;;8.70;99.90;;;;;;6276513;22;20124;-83
2022/10/01 08:48:07;;;;;;;5.63;3.50;;;8.80;99.90;;;;;;6276806;22;20030;-83
2022/10/01 08:51:12;;;;;;;4.00;3.45;;;8.80;99.90;;;;;;6278150;22;20047;-85
2022/10/01 08:54:33;;;;;;;3.72;3.38;;;8.80;1.00;;;;;;6255280;22;20027;-84
2022/10/01 08:57:45;;;;;;;4.45;3.20;;;8.80;1.00;;;;;;6256610;22;20431;-84
2022/10/01 09:00:37;;;;;;;4.88;3.63;;;8.90;1.00;;;;;;6278794;22;20130;-85
2022/10/01 09:03:28;;;;;;;4.13;3.35;;;9.00;1.00;;;;;;6256025;22;20093;-84
2022/10/01 09:06:19;;;;;;;12.00;3.80;;;9.10;1.00;;;;;;6256473;22;20028;-84
2022/10/01 09:09:48;;;;;;;3.78;2.83;;;9.20;1.00;;;;;;6276803;22;20027;-84
2022/10/01 09:13:23;;;;;;;6.30;3.30;;;9.20;1.00;;;;;;6134504;23;20100;-83
2022/10/01 09:16:29;;;;;;;5.10;2.90;;;9.30;1.00;;;;;;6258768;22;20104;-83
2022/10/01 09:19:57;;;;;;;4.15;2.70;;;9.40;1.00;;;;;;6256382;22;20024;-85
2022/10/01 09:23:11;;;;;;;3.67;2.60;;;9.50;1.00;;;;;;6232882;22;20024;-86
2022/10/01 09:25:58;;;;;;;3.67;2.40;;;9.50;1.00;;;;;;6279401;22;20047;-85
2022/10/01 09:28:50;;;;;;;2.55;2.00;;;9.50;1.00;;;;;;6277765;22;20028;-85
2022/10/01 09:31:44;;;;;;;2.40;2.20;;;9.50;1.00;;;;;;6277222;22;20016;-85
2022/10/01 09:34:38;;;;;;;5.90;2.15;;;9.50;1.00;;;;;;6277596;22;20030;-83
2022/10/01 09:37:56;;;;;;;3.17;2.88;;;9.50;1.00;;;;;;6276120;22;20031;-83
2022/10/01 09:40:57;;;;;;;2.83;2.30;;;9.50;1.00;;;;;;6257004;22;20024;-85
2022/10/01 09:43:44;;;;;;;4.68;2.13;;;9.60;1.00;;;;;;6256695;22;20106;-84
2022/10/01 09:46:34;;;;;;;2.80;2.50;;;9.70;1.00;;;;;;6279027;22;20042;-82
2022/10/01 09:49:28;;;;;;;3.35;2.10;;;9.80;1.00;;;;;;6257362;22;20280;-84
2022/10/01 09:52:25;;;;;;;2.58;2.33;;;9.90;1.00;;;;;;6275308;22;20073;-85
2022/10/01 09:55:36;;;;;;;3.78;1.80;;;9.90;1.00;;;;;;6276635;22;20388;-87
2022/10/01 09:58:26;;;;;;;3.08;2.00;;;9.90;1.00;;;;;;6276515;22;20145;-84
2022/10/01 10:01:22;;;;;;;2.97;2.30;;;9.90;1.00;;;;;;6277390;22;20501;-84
2022/10/01 10:04:10;;;;;;;2.95;2.10;;;9.90;1.00;;;;;;6275522;22;20024;-83
2022/10/01 10:07:04;;;;;;;6.10;3.05;;;9.80;15.80;;;;;;6275256;22;20038;-85
2022/10/01 10:09:51;;;;;;;2.97;1.70;;;9.90;43.50;;;;;;6278215;22;20052;-84
2022/10/01 10:12:40;;;;;;;3.47;2.60;;;9.90;99.90;;;;;;6275687;22;20024;-83
2022/10/01 10:15:31;;;;;;;3.50;2.30;;;9.90;99.90;;;;;;6276565;22;20102;-84
2022/10/01 10:18:34;;;;;;;3.58;2.47;;;9.90;99.90;;;;;;6256416;22;20430;-82
2022/10/01 10:21:29;;;;;;;;;;;9.80;99.90;;;;;;6256247;22;20153;-84
2022/10/01 10:24:25;;;;;;;2.97;1.95;;;9.80;99.90;;;;;;6279103;22;19941;-87
2022/10/01 10:27:27;;;;;;;2.28;2.08;;;9.80;99.90;;;;;;6275600;22;20074;-84
2022/10/01 10:30:17;;;;;;;8.27;2.80;;;9.80;1.00;;;;;;6256777;22;20027;-86
2022/10/01 10:33:06;;;;;;;3.17;2.88;;;9.80;99.90;;;;;;6276157;22;20398;-81
2022/10/01 10:36:04;;;;;;;2.25;2.10;;;9.80;1.00;;;;;;6278797;22;20585;-83
2022/10/01 10:38:53;;;;;;;1.88;1.77;;;9.80;99.90;;;;;;6277173;22;20089;-83
2022/10/01 10:41:45;;;;;;;3.25;2.00;;;9.80;48.30;;;;;;6278501;22;20052;-84
2022/10/01 10:44:38;;;;;;;1.38;1.27;;;9.90;99.90;;;;;;6276114;22;20114;-85
2022/10/01 10:47:30;;;;;;;2.33;2.03;;;9.90;99.90;;;;;;6276228;22;20329;-83
2022/10/01 10:50:31;;;;;;;3.90;2.03;;;9.90;99.90;;;;;;6279736;22;20180;-84
2022/10/01 10:53:26;;;;;;;2.25;1.98;;;9.90;1.00;;;;;;6274575;22;20132;-84
2022/10/01 10:56:21;;;;;;;3.15;2.08;;;10.00;1.00;;;;;;6275637;22;20028;-85
2022/10/01 10:59:11;;;;;;;1.98;1.80;;;10.10;99.90;;;;;;6257103;22;20403;-84
2022/10/01 11:02:03;;;;;;;4.55;1.70;;;10.20;99.90;;;;;;6275694;22;20040;-85
2022/10/01 11:04:56;;;;;;;3.75;1.95;;;10.20;99.90;;;;;;6256378;22;20024;-83
2022/10/01 11:07:46;;;;;;;2.33;1.65;;;10.30;1.00;;;;;;6278207;22;20019;-84
2022/10/01 11:10:45;;;;;;;2.17;1.70;;;10.30;99.90;;;;;;6257348;22;20085;-83
2022/10/01 11:13:35;;;;;;;2.35;1.65;;;10.30;75.10;;;;;;6278019;22;20016;-85
2022/10/01 11:16:48;;;;;;;1.50;1.40;;;10.40;6.30;;;;;;6278250;22;20024;-87
2022/10/01 11:19:57;;;;;;;1.33;1.20;;;10.40;1.00;;;;;;6256642;22;20045;-84
2022/10/01 11:23:18;;;;;;;1.65;1.45;;;10.50;99.90;;;;;;6277659;22;20027;-85
2022/10/01 11:26:36;;;;;;;2.72;1.42;;;10.50;99.90;;;;;;6278571;22;20023;-85
2022/10/01 11:30:01;;;;;;;2.92;1.20;;;10.60;99.90;;;;;;6277719;22;20020;-88
2022/10/01 11:33:20;;;;;;;2.65;1.33;;;10.70;99.90;;;;;;6278682;22;20034;-85
2022/10/01 11:36:23;;;;;;;1.70;1.13;;;10.70;55.30;;;;;;6279512;22;20380;-87
2022/10/01 11:39:17;;;;;;;1.77;1.33;;;10.60;8.30;;;;;;6278689;22;20455;-90
2022/10/01 11:42:12;;;;;;;2.72;1.20;;;10.60;8.10;;;;;;6278530;22;20436;-86
2022/10/01 11:45:08;;;;;;;1.25;0.95;;;10.60;1.00;;;;;;6277401;22;20019;-86
2022/10/01 11:48:04;;;;;;;2.22;1.15;;;10.60;1.00;;;;;;6278226;22;20101;-85
2022/10/01 11:50:58;;;;;;;1.05;1.00;;;10.70;1.00;;;;;;6281245;22;20358;-86
2022/10/01 11:53:56;;;;;;;1.33;1.13;;;10.70;1.00;;;;;;6284516;22;20074;-87
2022/10/01 12:00:11;;;;;;;1.88;1.25;;;10.90;99.90;;;;;;6284776;22;20028;-84
2022/10/01 12:03:01;;;;;;;1.95;1.10;;;11.00;99.90;;;;;;6278623;22;20554;-86
2022/10/01 12:05:49;;;;;;;1.15;1.05;;;11.20;99.90;;;;;;6261224;22;20079;-86
2022/10/01 12:08:47;;;;;;;3.70;1.60;;;11.20;99.90;;;;;;6279586;22;20082;-86
2022/10/01 12:11:36;;;;;;;1.92;1.08;;;11.20;99.90;;;;;;6278206;22;20031;-84
2022/10/01 12:14:41;;;;;;;1.50;0.80;;;11.30;99.90;;;;;;6280701;22;20019;-85
2022/10/01 12:17:42;;;;;;;1.02;0.93;;;11.30;99.90;;;;;;6279499;22;20089;-81
2022/10/01 12:20:48;;;;;;;2.78;0.90;;;11.30;99.90;;;;;;6280207;22;20030;-83
2022/10/01 12:23:47;;;;;;;1.02;0.90;;;11.30;99.90;;;;;;6275940;22;20101;-86
2022/10/01 12:27:01;;;;;;;1.15;0.93;;;11.20;99.90;;;;;;6277255;22;20105;-84
2022/10/01 12:29:54;;;;;;;1.65;1.10;;;11.20;99.90;;;;;;6277597;22;20020;-84
2022/10/01 12:33:03;;;;;;;2.83;1.50;;;11.20;99.90;;;;;;6279055;22;20109;-86
2022/10/01 12:36:05;;;;;;;1.30;1.20;;;11.20;99.90;;;;;;6280104;22;20423;-86
2022/10/01 12:39:13;;;;;;;1.90;1.27;;;11.30;99.90;;;;;;6277312;22;20027;-85
2022/10/01 12:42:45;;;;;;;1.17;0.93;;;11.40;99.90;;;;;;6280000;22;20027;-82
2022/10/01 12:45:38;;;;;;;1.08;1.08;;;11.40;99.90;;;;;;6276948;22;20024;-84
2022/10/01 12:48:38;;;;;;;1.70;1.55;;;11.50;99.90;;;;;;6278259;22;20098;-86
2022/10/01 12:51:37;;;;;;;2.63;1.50;;;11.60;99.90;;;;;;6256675;22;20031;-85
2022/10/01 12:54:34;;;;;;;1.88;1.20;;;11.80;99.90;;;;;;6279555;22;20024;-86
2022/10/01 12:57:31;;;;;;;2.83;1.63;;;11.80;99.90;;;;;;6280355;22;20079;-85
2022/10/01 13:00:20;;;;;;;3.78;2.13;;;11.80;99.90;;;;;;6280096;22;20094;-88
2022/10/01 13:03:37;;;;;;;3.42;2.33;;;11.80;99.90;;;;;;6276725;22;20071;-85
2022/10/01 13:06:48;;;;;;;3.38;1.70;;;11.90;99.90;;;;;;6279456;22;20034;-86
2022/10/01 13:09:54;;;;;;;2.28;1.30;;;12.00;99.90;;;;;;6278932;22;20403;-85
2022/10/01 13:12:57;;;;;;;1.30;1.13;;;12.10;99.90;;;;;;6280373;22;20028;-89
2022/10/01 13:15:48;;;;;;;2.72;1.80;;;12.00;95.80;;;;;;6258740;22;20038;-85
2022/10/01 13:19:08;;;;;;;1.77;1.20;;;11.90;99.90;;;;;;6276979;22;20019;-83
2022/10/01 13:22:32;;;;;;;3.78;1.50;;;11.90;99.90;;;;;;6279944;22;20020;-85
2022/10/01 13:25:44;;;;;;;1.55;1.40;;;12.00;99.90;;;;;;6276807;22;20026;-86
2022/10/01 13:29:09;;;;;;;1.30;1.20;;;12.20;99.90;;;;;;6256512;22;20047;-84
2022/10/01 13:31:59;;;;;;;5.18;0.90;;;12.40;94.30;;;;;;6250603;22;20024;-86
2022/10/01 13:34:48;;;;;;;2.50;1.40;;;12.70;28.60;;;;;;6257418;22;20470;-87
2022/10/01 13:37:40;;;;;;;1.83;0.93;;;12.80;1.00;;;;;;6257129;22;20059;-86
2022/10/01 13:40:32;;;;;;;0.68;0.68;;;13.00;1.00;;;;;;6276820;22;20045;-85
2022/10/01 13:43:23;;;;;;;1.25;0.80;;;13.10;1.00;;;;;;6257290;22;20019;-85
2022/10/01 13:46:10;;;;;;;1.60;1.00;;;13.20;1.00;;;;;;6275474;22;20034;-86
2022/10/01 13:49:06;;;;;;;1.48;0.88;;;13.20;1.00;;;;;;6276085;22;20269;-87
2022/10/01 13:51:54;;;;;;;6.32;0.82;;;13.30;1.00;;;;;;6276198;22;20027;-89
2022/10/01 13:54:52;;;;;;;1.42;1.02;;;13.40;1.00;;;;;;6256686;22;20445;-87
2022/10/01 13:57:41;;;;;;;0.68;0.63;;;13.50;1.00;;;;;;6276195;22;20077;-88
2022/10/01 14:00:28;;;;;;;0.82;0.80;;;13.50;99.90;;;;;;6278567;22;20107;-86
2022/10/01 14:03:41;;;;;;;2.67;1.73;;;13.50;99.90;;;;;;6254951;22;20024;-88
2022/10/01 14:06:34;;;;;;;4.05;1.17;;;13.50;99.90;;;;;;6277194;22;20389;-87
2022/10/01 14:09:29;;;;;;;2.35;0.90;;;13.60;99.90;;;;;;6276317;22;20020;-87
2022/10/01 14:15:59;;;;;;;1.77;0.95;;;13.60;99.90;;;;;;6276045;22;20349;-87
2022/10/01 14:18:50;;;;;;;2.03;1.10;;;13.70;99.90;;;;;;6278195;22;20387;-85
2022/10/01 14:22:05;;;;;;;1.30;0.70;;;13.70;99.90;;;;;;6276145;22;20019;-87
2022/10/01 14:25:25;;;;;;;0.85;0.80;;;13.60;99.90;;;;;;6257392;22;20028;-86
2022/10/01 14:28:31;;;;;;;0.80;0.73;;;13.50;99.90;;;;;;6276732;22;20315;-85
2022/10/01 14:31:42;;;;;;;35.22;13.30;;;13.50;99.90;;;;;;6276575;22;20015;-87
2022/10/01 14:34:46;;;;;;;1.52;0.98;;;13.50;99.90;;;;;;6276174;22;20023;-87
2022/10/01 14:37:38;;;;;;;1.45;0.80;;;13.40;99.90;;;;;;6256092;22;20063;-85
2022/10/01 14:40:30;;;;;;;2.15;0.93;;;13.30;99.90;;;;;;6279553;22;20077;-86
2022/10/01 14:43:20;;;;;;;1.17;1.00;;;13.30;99.90;;;;;;6276860;22;20031;-84
2022/10/01 14:46:26;;;;;;;3.70;0.90;;;13.20;99.90;;;;;;6276748;22;20050;-87
2022/10/01 14:49:29;;;;;;;1.70;1.20;;;13.20;99.90;;;;;;6275227;22;20182;-88
2022/10/01 14:52:25;;;;;;;3.38;2.30;;;13.20;99.90;;;;;;6276624;22;20066;-85
2022/10/01 14:55:14;;;;;;;4.03;2.35;;;13.00;1.00;;;;;;6277507;22;20027;-85
2022/10/01 14:58:04;;;;;;;1.98;1.65;;;12.90;1.00;;;;;;6276073;22;20364;-85
2022/10/01 15:00:55;;;;;;;1.95;1.35;;;12.90;1.00;;;;;;6279082;22;20110;-85
2022/10/01 15:03:42;;;;;;;1.10;1.00;;;12.80;1.00;;;;;;6275825;22;20055;-86
2022/10/01 15:06:41;;;;;;;2.28;1.60;;;12.80;1.00;;;;;;6276482;22;20024;-86
2022/10/01 15:09:32;;;;;;;4.15;2.15;;;12.70;1.00;;;;;;6276781;22;20051;-85
2022/10/01 15:12:22;;;;;;;2.60;1.70;;;12.60;1.00;;;;;;6275981;22;20422;-89
2022/10/01 15:15:23;;;;;;;2.78;1.60;;;12.60;1.00;;;;;;6277081;22;20024;-90
2022/10/01 15:18:14;;;;;;;1.85;1.02;;;12.60;1.00;;;;;;6278722;22;20035;-86
2022/10/01 15:21:06;;;;;;;2.65;1.55;;;12.60;1.00;;;;;;6257189;22;20035;-86
2022/10/01 15:23:53;;;;;;;1.25;1.13;;;12.60;1.00;;;;;;6278169;22;20039;-85
2022/10/01 15:26:43;;;;;;;4.90;2.53;;;12.60;1.00;;;;;;6278745;22;20098;-86
2022/10/01 15:29:30;;;;;;;4.03;1.95;;;12.60;1.00;;;;;;6253184;22;20055;-90